Time;durP1;ratioP1;P1;durP2;ratioP2;P2;SDS_P1;SDS_P2;PMS_P1;PMS_P2;Temp;Humidity;BMP_temperature;BMP_pressure;BME280_temperature;BME280_humidity;BME280_pressure;Samples;Min_cycle;Max_cycle;Signal;HPM_P1;HPM_P2
2021/12/13 00:00:53;;;;;;;0.50;0.10;;;6.80;1.00;;;;;;5073481;28;20860;-64
2021/12/13 00:03:29;;;;;;;0.50;0.10;;;6.80;1.00;;;;;;5073616;28;20473;-65
2021/12/13 00:06:00;;;;;;;0.50;0.20;;;6.80;1.00;;;;;;5073732;28;20458;-65
2021/12/13 00:08:30;;;;;;;0.50;0.20;;;6.80;1.00;;;;;;5074152;28;20448;-64
2021/12/13 00:11:07;;;;;;;2.23;1.43;;;6.80;1.00;;;;;;5074170;28;20448;-65
2021/12/13 00:13:40;;;;;;;0.50;0.20;;;6.80;1.00;;;;;;5073168;28;20471;-65
2021/12/13 00:16:11;;;;;;;0.50;0.10;;;6.80;1.00;;;;;;5073043;28;20806;-65
2021/12/13 00:18:42;;;;;;;0.50;0.10;;;6.80;1.00;;;;;;5073191;28;20455;-65
2021/12/13 00:21:14;;;;;;;0.50;0.10;;;6.80;1.00;;;;;;5072979;28;20490;-66
2021/12/13 00:23:50;;;;;;;0.93;0.93;;;6.80;1.00;;;;;;5073059;28;20482;-64
2021/12/13 00:26:25;;;;;;;1.00;0.97;;;6.80;1.00;;;;;;5073377;28;20423;-65
2021/12/13 00:28:52;;;;;;;0.60;0.43;;;6.80;1.00;;;;;;5073031;28;20458;-65
2021/12/13 00:31:34;;;;;;;1.40;1.30;;;6.80;1.00;;;;;;5053039;28;21056;-66
2021/12/13 00:34:10;;;;;;;1.93;1.33;;;6.80;1.00;;;;;;5062352;28;20472;-64
2021/12/13 00:36:43;;;;;;;2.93;2.47;;;6.80;1.00;;;;;;5073050;28;20463;-65
2021/12/13 00:39:15;;;;;;;0.50;0.10;;;6.80;1.00;;;;;;5073123;28;20448;-65
2021/12/13 00:41:46;;;;;;;2.00;1.90;;;6.80;1.00;;;;;;5072854;28;21104;-66
2021/12/13 00:44:17;;;;;;;0.60;0.40;;;6.80;1.00;;;;;;5072588;28;20954;-64
2021/12/13 00:46:50;;;;;;;0.57;0.30;;;6.70;1.00;;;;;;5073340;28;20450;-65
2021/12/13 00:49:21;;;;;;;0.50;0.10;;;6.70;1.00;;;;;;5072225;28;20540;-64
2021/12/13 00:51:52;;;;;;;1.67;0.67;;;6.80;1.00;;;;;;5073400;28;20440;-65
2021/12/13 00:54:23;;;;;;;0.50;0.10;;;6.80;1.00;;;;;;5072702;28;20455;-65
2021/12/13 00:57:05;;;;;;;0.50;0.10;;;6.80;1.00;;;;;;5072845;28;20463;-64
2021/12/13 00:59:36;;;;;;;0.50;0.10;;;6.80;1.00;;;;;;5072530;28;20470;-65
2021/12/13 01:02:09;;;;;;;0.60;0.37;;;6.90;1.00;;;;;;5072461;28;20467;-66
2021/12/13 01:04:56;;;;;;;0.50;0.10;;;6.90;1.00;;;;;;5072278;28;20449;-66
2021/12/13 01:08:01;;;;;;;0.60;0.60;;;6.80;1.00;;;;;;5072343;28;20505;-63
2021/12/13 01:11:09;;;;;;;0.50;0.20;;;6.90;1.00;;;;;;5072681;28;20455;-64
2021/12/13 01:13:49;;;;;;;0.50;0.10;;;6.90;1.00;;;;;;5072073;28;20472;-64
2021/12/13 01:16:47;;;;;;;0.50;0.10;;;6.90;1.00;;;;;;5072105;28;20452;-66
2021/12/13 01:19:31;;;;;;;0.50;0.10;;;7.00;1.00;;;;;;5071735;28;20546;-64
2021/12/13 01:22:36;;;;;;;0.80;0.67;;;6.90;1.00;;;;;;5072204;28;20487;-64
2021/12/13 01:25:22;;;;;;;0.50;0.30;;;7.00;1.00;;;;;;5072432;28;20454;-64
2021/12/13 01:27:56;;;;;;;1.23;1.13;;;6.90;1.00;;;;;;5074834;28;20466;-65
2021/12/13 01:30:30;;;;;;;0.50;0.10;;;7.00;1.00;;;;;;5064130;28;20448;-65
2021/12/13 01:33:00;;;;;;;0.80;0.73;;;6.90;1.00;;;;;;5051460;28;20828;-64
2021/12/13 01:35:34;;;;;;;0.50;0.10;;;6.90;1.00;;;;;;5051065;28;20444;-64
2021/12/13 01:38:07;;;;;;;0.50;0.20;;;;;;;;;;5072069;28;20444;-64
2021/12/13 01:40:39;;;;;;;0.50;0.10;;;6.90;1.00;;;;;;5071609;28;20485;-66
2021/12/13 01:43:10;;;;;;;0.50;0.10;;;6.90;1.00;;;;;;5071759;28;20478;-65
2021/12/13 01:45:42;;;;;;;0.50;0.20;;;6.90;1.00;;;;;;5072310;28;20463;-65
2021/12/13 01:48:21;;;;;;;1.13;1.03;;;7.00;1.00;;;;;;5071699;28;20452;-65
2021/12/13 01:51:04;;;;;;;3.00;2.73;;;7.00;1.00;;;;;;5071829;28;20455;-65
2021/12/13 01:53:37;;;;;;;0.50;0.13;;;7.10;1.00;;;;;;5071567;28;20858;-65
2021/12/13 01:56:23;;;;;;;0.50;0.10;;;7.00;1.00;;;;;;5072097;28;20444;-65
2021/12/13 01:58:52;;;;;;;0.50;0.10;;;7.00;1.00;;;;;;5071651;28;20467;-65
2021/12/13 02:01:25;;;;;;;0.50;0.10;;;7.00;1.00;;;;;;5071409;28;20493;-65
2021/12/13 02:03:58;;;;;;;0.93;0.93;;;7.10;1.00;;;;;;5071415;28;20467;-65
2021/12/13 02:06:39;;;;;;;0.50;0.10;;;7.10;1.00;;;;;;5071766;28;20957;-65
2021/12/13 02:09:13;;;;;;;0.60;0.57;;;7.10;1.00;;;;;;5071091;28;20973;-65
2021/12/13 02:11:42;;;;;;;0.50;0.10;;;;;;;;;;5071647;28;20540;-64
2021/12/13 02:14:16;;;;;;;0.50;0.10;;;7.10;1.00;;;;;;5071123;28;20452;-65
2021/12/13 02:17:01;;;;;;;0.50;0.10;;;7.10;1.00;;;;;;5069952;28;20449;-64
2021/12/13 02:19:36;;;;;;;0.50;0.20;;;7.10;1.00;;;;;;5070142;28;20522;-65
2021/12/13 02:22:32;;;;;;;0.60;0.20;;;7.20;1.00;;;;;;5069507;28;20490;-64
2021/12/13 02:25:05;;;;;;;0.50;0.10;;;7.20;1.00;;;;;;5071148;28;20456;-64
2021/12/13 02:27:36;;;;;;;0.60;0.40;;;7.20;1.00;;;;;;5071709;28;20435;-65
2021/12/13 02:30:10;;;;;;;0.50;0.10;;;7.20;1.00;;;;;;5071151;28;20448;-64
2021/12/13 02:32:40;;;;;;;0.50;0.10;;;7.10;1.00;;;;;;5071266;28;20468;-65
2021/12/13 02:35:10;;;;;;;0.50;0.10;;;7.10;1.00;;;;;;5071305;28;20946;-64
2021/12/13 02:37:41;;;;;;;0.50;0.10;;;7.00;1.00;;;;;;5071050;28;20460;-64
2021/12/13 02:40:12;;;;;;;0.50;0.10;;;7.00;1.00;;;;;;5072177;28;20946;-64
2021/12/13 02:42:40;;;;;;;0.50;0.10;;;7.10;1.00;;;;;;5075258;28;20487;-67
2021/12/13 02:45:15;;;;;;;0.50;0.20;;;7.10;1.00;;;;;;5074942;28;20454;-64
2021/12/13 02:47:49;;;;;;;1.67;0.67;;;7.10;1.00;;;;;;5075447;28;20450;-64
2021/12/13 02:50:24;;;;;;;0.50;0.20;;;7.10;1.00;;;;;;5074974;28;20646;-65
2021/12/13 02:52:54;;;;;;;0.93;0.93;;;7.10;1.00;;;;;;5074471;28;20795;-65
2021/12/13 02:55:28;;;;;;;0.93;0.93;;;7.10;1.00;;;;;;5075664;28;20444;-65
2021/12/13 02:57:59;;;;;;;0.50;0.10;;;7.10;1.00;;;;;;5075349;28;20448;-65
2021/12/13 03:00:31;;;;;;;1.60;1.50;;;7.10;1.00;;;;;;5075436;28;20441;-64
2021/12/13 03:03:03;;;;;;;0.50;0.10;;;7.10;1.00;;;;;;5074573;28;20878;-65
2021/12/13 03:05:34;;;;;;;0.50;0.10;;;7.10;1.00;;;;;;5074687;28;20450;-65
2021/12/13 03:08:09;;;;;;;0.50;0.10;;;7.10;1.00;;;;;;5075535;28;20455;-65
2021/12/13 03:10:40;;;;;;;4.27;3.90;;;7.10;1.00;;;;;;5074083;28;20452;-65
2021/12/13 03:13:08;;;;;;;0.50;0.20;;;7.10;1.00;;;;;;5074624;28;20453;-64
2021/12/13 03:15:37;;;;;;;0.90;0.40;;;7.10;1.00;;;;;;5074952;28;20441;-66
2021/12/13 03:18:12;;;;;;;0.50;0.10;;;7.10;1.00;;;;;;5074733;28;20449;-65
2021/12/13 03:21:01;;;;;;;1.37;0.87;;;7.10;1.00;;;;;;5073476;28;20459;-66
2021/12/13 03:23:49;;;;;;;0.60;0.23;;;7.10;1.00;;;;;;5068828;28;20813;-65
2021/12/13 03:26:39;;;;;;;2.87;0.80;;;7.10;1.00;;;;;;5065047;28;20942;-65
2021/12/13 03:29:15;;;;;;;0.50;0.30;;;7.20;1.00;;;;;;5074655;28;20457;-63
2021/12/13 03:31:51;;;;;;;0.50;0.10;;;7.20;1.00;;;;;;5074306;28;20432;-65
2021/12/13 03:34:22;;;;;;;0.50;0.10;;;7.20;1.00;;;;;;5067605;28;20453;-65
2021/12/13 03:36:57;;;;;;;0.50;0.10;;;7.20;1.00;;;;;;5071009;28;20444;-65
2021/12/13 03:39:29;;;;;;;0.50;0.10;;;7.20;1.00;;;;;;5074739;28;20452;-64
2021/12/13 03:41:59;;;;;;;0.50;0.10;;;7.30;1.00;;;;;;5075385;28;20469;-65
2021/12/13 03:44:33;;;;;;;1.03;0.83;;;7.30;1.00;;;;;;5074724;28;20448;-66
2021/12/13 03:47:08;;;;;;;0.50;0.17;;;7.30;1.00;;;;;;5074301;28;20532;-64
2021/12/13 03:49:41;;;;;;;0.50;0.13;;;7.30;1.00;;;;;;5073786;28;20443;-65
2021/12/13 03:52:11;;;;;;;0.60;0.10;;;7.30;1.00;;;;;;5073281;28;20464;-65
2021/12/13 03:54:44;;;;;;;1.80;1.70;;;7.30;1.00;;;;;;5073864;28;20818;-65
2021/12/13 03:57:15;;;;;;;0.50;0.10;;;7.30;1.00;;;;;;5074153;28;20449;-65
2021/12/13 03:59:44;;;;;;;0.50;0.10;;;7.30;1.00;;;;;;5073772;28;20449;-65
2021/12/13 04:02:17;;;;;;;0.50;0.10;;;7.30;1.00;;;;;;5065992;28;21070;-66
2021/12/13 04:04:49;;;;;;;1.97;1.87;;;7.30;1.00;;;;;;5073469;28;20450;-65
2021/12/13 04:07:20;;;;;;;0.77;0.10;;;7.30;1.00;;;;;;5073956;28;20446;-66
2021/12/13 04:09:55;;;;;;;0.50;0.10;;;7.30;1.00;;;;;;5073423;28;20456;-64
2021/12/13 04:12:31;;;;;;;0.60;0.33;;;7.30;1.00;;;;;;5067072;28;20546;-65
2021/12/13 04:15:12;;;;;;;0.50;0.10;;;7.30;1.00;;;;;;5073276;28;20448;-66
2021/12/13 04:17:45;;;;;;;0.50;0.10;;;7.30;1.00;;;;;;5073710;28;20915;-65
2021/12/13 04:20:16;;;;;;;0.50;0.20;;;7.30;1.00;;;;;;5073474;28;20459;-65
2021/12/13 04:22:49;;;;;;;5.83;1.90;;;7.30;1.00;;;;;;5073078;28;20490;-65
2021/12/13 04:25:21;;;;;;;0.87;0.87;;;7.20;1.00;;;;;;5073432;28;20453;-65
2021/12/13 04:27:56;;;;;;;11.63;3.43;;;7.10;1.00;;;;;;5073435;28;20807;-65
2021/12/13 04:30:28;;;;;;;0.50;0.10;;;7.10;1.00;;;;;;5073271;28;20818;-65
2021/12/13 04:33:00;;;;;;;0.70;0.47;;;7.00;1.00;;;;;;5073010;28;20464;-64
2021/12/13 04:35:30;;;;;;;0.60;0.30;;;7.00;1.00;;;;;;5072993;28;20761;-66
2021/12/13 04:38:02;;;;;;;0.50;0.10;;;7.00;1.00;;;;;;5073042;28;20437;-65
2021/12/13 04:40:35;;;;;;;0.50;0.10;;;7.00;1.00;;;;;;5062142;28;20946;-64
2021/12/13 04:43:07;;;;;;;0.50;0.17;;;7.00;1.00;;;;;;5072792;28;20833;-66
2021/12/13 04:45:36;;;;;;;2.47;2.37;;;7.00;1.00;;;;;;5072780;28;20451;-65
2021/12/13 04:48:07;;;;;;;0.50;0.20;;;7.00;1.00;;;;;;5072732;28;20443;-65
2021/12/13 04:50:39;;;;;;;0.50;0.10;;;7.00;1.00;;;;;;5072143;28;20458;-66
2021/12/13 04:53:18;;;;;;;0.50;0.10;;;7.10;1.00;;;;;;5072640;28;20512;-65
2021/12/13 04:55:48;;;;;;;0.50;0.20;;;7.10;1.00;;;;;;5073064;28;20458;-65
2021/12/13 04:58:18;;;;;;;0.50;0.10;;;7.10;1.00;;;;;;5072782;28;20446;-65
2021/12/13 05:00:51;;;;;;;0.50;0.10;;;7.10;1.00;;;;;;5072472;28;20440;-65
2021/12/13 05:03:22;;;;;;;0.50;0.10;;;7.20;1.00;;;;;;5072421;28;20488;-65
2021/12/13 05:05:50;;;;;;;0.50;0.10;;;7.20;1.00;;;;;;5072826;28;20448;-65
2021/12/13 05:08:21;;;;;;;0.50;0.10;;;7.20;1.00;;;;;;5073051;28;20449;-65
2021/12/13 05:10:52;;;;;;;0.50;0.10;;;7.30;1.00;;;;;;5072529;28;20459;-65
2021/12/13 05:13:24;;;;;;;0.50;0.10;;;7.40;1.00;;;;;;5072916;28;20479;-65
2021/12/13 05:15:56;;;;;;;0.60;0.40;;;7.40;1.00;;;;;;5072639;28;20455;-65
2021/12/13 05:18:27;;;;;;;8.23;6.93;;;7.30;1.00;;;;;;5073014;28;20445;-65
2021/12/13 05:21:02;;;;;;;0.50;0.10;;;7.40;1.00;;;;;;5071725;28;20943;-65
2021/12/13 05:23:32;;;;;;;0.50;0.10;;;7.30;1.00;;;;;;5056474;28;20474;-65
2021/12/13 05:26:04;;;;;;;0.50;0.10;;;7.30;1.00;;;;;;5072068;28;20935;-65
2021/12/13 05:28:40;;;;;;;0.50;0.10;;;7.30;1.00;;;;;;5071873;28;20968;-65
2021/12/13 05:31:16;;;;;;;0.50;0.10;;;7.30;1.00;;;;;;5069026;28;20453;-65
2021/12/13 05:33:45;;;;;;;0.50;0.10;;;7.30;1.00;;;;;;5064921;28;20511;-65
2021/12/13 05:36:22;;;;;;;0.50;0.10;;;7.40;1.00;;;;;;5063963;28;20444;-65
2021/12/13 05:38:59;;;;;;;0.50;0.10;;;7.30;1.00;;;;;;5071630;28;20459;-65
2021/12/13 05:41:30;;;;;;;0.50;0.10;;;7.40;1.00;;;;;;5071457;28;20448;-65
2021/12/13 05:44:00;;;;;;;0.50;0.10;;;7.40;1.00;;;;;;5071753;28;20487;-64
2021/12/13 05:46:35;;;;;;;0.50;0.20;;;7.40;1.00;;;;;;5070293;28;20455;-65
2021/12/13 05:49:06;;;;;;;0.50;0.10;;;7.40;1.00;;;;;;5058422;28;20453;-65
2021/12/13 05:51:39;;;;;;;0.50;0.10;;;7.40;1.00;;;;;;5071790;28;20444;-65
2021/12/13 05:54:10;;;;;;;0.50;0.10;;;7.50;1.00;;;;;;5071319;28;20468;-65
2021/12/13 05:56:42;;;;;;;0.50;0.10;;;7.50;1.00;;;;;;5071813;28;20437;-65
2021/12/13 05:59:20;;;;;;;0.50;0.10;;;7.60;1.00;;;;;;5071481;28;20461;-66
2021/12/13 06:01:59;;;;;;;0.50;0.20;;;7.50;1.00;;;;;;5071401;28;20509;-66
2021/12/13 06:04:39;;;;;;;0.50;0.10;;;7.50;1.00;;;;;;5071231;28;20475;-65
2021/12/13 06:07:20;;;;;;;0.50;0.10;;;7.50;1.00;;;;;;5071781;28;20439;-67
2021/12/13 06:09:54;;;;;;;0.50;0.10;;;7.50;1.00;;;;;;5069515;28;20461;-65
2021/12/13 06:12:34;;;;;;;0.50;0.10;;;7.60;1.00;;;;;;5066201;28;20465;-66
2021/12/13 06:15:24;;;;;;;0.50;0.10;;;7.60;1.00;;;;;;5072515;28;20454;-66
2021/12/13 06:17:57;;;;;;;0.50;0.10;;;7.60;1.00;;;;;;5065073;28;20448;-65
2021/12/13 06:20:28;;;;;;;0.50;0.20;;;7.70;1.00;;;;;;5075500;28;20437;-65
2021/12/13 06:23:05;;;;;;;0.50;0.10;;;7.60;1.00;;;;;;5075613;28;20475;-65
2021/12/13 06:25:33;;;;;;;0.50;0.10;;;7.60;1.00;;;;;;5075453;28;20508;-65
2021/12/13 06:28:04;;;;;;;0.60;0.40;;;7.60;1.00;;;;;;5075314;28;20448;-65
2021/12/13 06:30:34;;;;;;;0.50;0.20;;;7.60;1.00;;;;;;5067391;28;20474;-66
2021/12/13 06:33:06;;;;;;;0.50;0.10;;;7.50;1.00;;;;;;5075147;28;20523;-65
2021/12/13 06:35:47;;;;;;;0.50;0.10;;;7.50;1.00;;;;;;5074752;28;20448;-65
2021/12/13 06:38:43;;;;;;;0.50;0.10;;;7.50;1.00;;;;;;5074808;28;20450;-64
2021/12/13 06:41:38;;;;;;;0.50;0.10;;;7.50;1.00;;;;;;5057214;28;20448;-66
2021/12/13 06:44:21;;;;;;;3.53;2.10;;;7.50;1.00;;;;;;5074220;28;20509;-64
2021/12/13 06:46:56;;;;;;;0.50;0.10;;;7.50;1.00;;;;;;5075035;28;20458;-65
2021/12/13 06:49:28;;;;;;;0.50;0.10;;;7.50;1.00;;;;;;5072460;28;20448;-66
2021/12/13 06:51:59;;;;;;;0.50;0.10;;;7.50;1.00;;;;;;5070261;28;20467;-65
2021/12/13 06:54:35;;;;;;;0.50;0.10;;;7.50;1.00;;;;;;5074142;28;20452;-65
2021/12/13 06:57:06;;;;;;;0.50;0.10;;;7.60;1.00;;;;;;5074335;28;20454;-65
2021/12/13 06:59:38;;;;;;;0.50;0.10;;;7.60;1.00;;;;;;5068999;28;20950;-65
2021/12/13 07:02:15;;;;;;;0.50;0.10;;;7.60;1.00;;;;;;5054286;28;20469;-65
2021/12/13 07:05:00;;;;;;;0.50;0.10;;;7.60;1.00;;;;;;5060624;28;21086;-66
2021/12/13 07:07:32;;;;;;;0.50;0.10;;;7.60;1.00;;;;;;5067424;28;20800;-66
2021/12/13 07:10:02;;;;;;;5.23;4.83;;;7.60;1.00;;;;;;5073773;28;20496;-66
2021/12/13 07:12:32;;;;;;;0.83;0.83;;;7.70;1.00;;;;;;5065145;28;20481;-66
2021/12/13 07:15:03;;;;;;;0.50;0.10;;;7.70;1.00;;;;;;5072248;28;20446;-65
2021/12/13 07:17:34;;;;;;;1.70;1.60;;;7.60;1.00;;;;;;5073828;28;20445;-65
2021/12/13 07:20:14;;;;;;;0.50;0.10;;;7.60;1.00;;;;;;5072171;28;20444;-66
2021/12/13 07:22:43;;;;;;;0.50;0.10;;;7.60;1.00;;;;;;5072017;28;21008;-66
2021/12/13 07:25:14;;;;;;;0.50;0.10;;;7.70;1.00;;;;;;5073353;28;21010;-66
2021/12/13 07:27:44;;;;;;;0.50;0.10;;;7.70;1.00;;;;;;5072435;28;20456;-65
2021/12/13 07:30:17;;;;;;;0.50;0.20;;;7.70;1.00;;;;;;5073929;28;20467;-67
2021/12/13 07:32:49;;;;;;;0.50;0.10;;;7.70;1.00;;;;;;5073285;28;20515;-66
2021/12/13 07:35:20;;;;;;;0.50;0.10;;;7.70;1.00;;;;;;5073865;28;20525;-66
2021/12/13 07:37:51;;;;;;;0.50;0.20;;;7.70;1.00;;;;;;5074413;28;20458;-67
2021/12/13 07:40:27;;;;;;;0.50;0.10;;;7.70;1.00;;;;;;5073079;28;20554;-65
2021/12/13 07:43:16;;;;;;;0.50;0.10;;;7.70;1.00;;;;;;5065855;28;20511;-66
2021/12/13 07:45:52;;;;;;;0.50;0.10;;;7.60;1.00;;;;;;5069754;28;20852;-66
2021/12/13 07:48:22;;;;;;;0.50;0.10;;;7.60;1.00;;;;;;5058454;28;20502;-66
2021/12/13 07:51:04;;;;;;;1.83;0.60;;;7.60;1.00;;;;;;5072737;28;20468;-66
2021/12/13 07:53:47;;;;;;;0.50;0.10;;;7.60;1.00;;;;;;5072765;28;20534;-66
2021/12/13 07:56:22;;;;;;;0.50;0.10;;;7.60;1.00;;;;;;5068998;28;20451;-67
2021/12/13 07:58:58;;;;;;;0.50;0.10;;;7.60;1.00;;;;;;5072872;28;20458;-67
2021/12/13 08:01:29;;;;;;;0.50;0.20;;;7.60;1.00;;;;;;5073200;28;20447;-65
2021/12/13 08:04:07;;;;;;;2.77;1.07;;;7.60;1.00;;;;;;5072957;28;20479;-65
2021/12/13 08:06:43;;;;;;;0.50;0.10;;;7.60;1.00;;;;;;5073207;28;20444;-66
2021/12/13 08:09:14;;;;;;;0.77;0.77;;;7.60;1.00;;;;;;5068542;28;20501;-65
2021/12/13 08:11:46;;;;;;;0.60;0.23;;;7.60;1.00;;;;;;5072944;28;20527;-65
2021/12/13 08:14:15;;;;;;;0.50;0.10;;;7.60;1.00;;;;;;5072732;28;20447;-65
2021/12/13 08:16:48;;;;;;;0.50;0.10;;;7.70;1.00;;;;;;5059049;28;20518;-65
2021/12/13 08:19:20;;;;;;;0.50;0.10;;;7.70;1.00;;;;;;5062767;28;20457;-65
2021/12/13 08:21:51;;;;;;;0.50;0.10;;;7.80;1.00;;;;;;5069962;28;20460;-67
2021/12/13 08:24:28;;;;;;;0.50;0.10;;;7.80;1.00;;;;;;5071067;28;21000;-65
2021/12/13 08:27:00;;;;;;;0.50;0.10;;;7.80;1.00;;;;;;5066668;28;20462;-66
2021/12/13 08:29:32;;;;;;;0.50;0.10;;;7.80;1.00;;;;;;5066221;28;20475;-66
2021/12/13 08:32:07;;;;;;;0.50;0.10;;;7.90;1.00;;;;;;5053091;28;20839;-67
2021/12/13 08:34:38;;;;;;;0.50;0.10;;;7.90;1.00;;;;;;5063350;28;20931;-67
2021/12/13 08:37:21;;;;;;;0.50;0.10;;;7.90;1.00;;;;;;5069582;28;20540;-67
2021/12/13 08:39:53;;;;;;;0.50;0.20;;;7.80;1.00;;;;;;5072420;28;20457;-65
2021/12/13 08:42:23;;;;;;;1.90;1.80;;;7.80;1.00;;;;;;5072325;28;20487;-67
2021/12/13 08:44:57;;;;;;;2.70;2.00;;;7.80;1.00;;;;;;5072248;28;20491;-65
2021/12/13 08:47:33;;;;;;;0.50;0.10;;;7.80;1.00;;;;;;5070096;28;20456;-65
2021/12/13 08:50:08;;;;;;;0.50;0.10;;;7.90;1.00;;;;;;5067973;28;20458;-66
2021/12/13 08:52:40;;;;;;;0.50;0.10;;;8.00;1.00;;;;;;5071122;28;20478;-67
2021/12/13 08:55:19;;;;;;;0.50;0.10;;;8.00;1.00;;;;;;5063608;28;20486;-65
2021/12/13 08:57:52;;;;;;;0.50;0.10;;;8.10;1.00;;;;;;5072183;28;20441;-66
2021/12/13 09:00:37;;;;;;;0.50;0.10;;;8.10;1.00;;;;;;5071668;28;20452;-66
2021/12/13 09:03:42;;;;;;;0.50;0.10;;;8.10;1.00;;;;;;5067504;28;20516;-66
2021/12/13 09:06:24;;;;;;;0.60;0.20;;;8.20;1.00;;;;;;5059128;28;20544;-66
2021/12/13 09:08:58;;;;;;;0.50;0.10;;;8.20;1.00;;;;;;5071938;28;21004;-66
2021/12/13 09:11:33;;;;;;;0.50;0.10;;;8.20;1.00;;;;;;5071347;28;20448;-67
2021/12/13 09:14:10;;;;;;;0.50;0.10;;;8.20;1.00;;;;;;5060945;28;20863;-65
2021/12/13 09:16:52;;;;;;;0.50;0.10;;;8.20;1.00;;;;;;5072002;28;20456;-66
2021/12/13 09:19:26;;;;;;;0.50;0.10;;;8.10;1.00;;;;;;5071314;28;20449;-65
2021/12/13 09:21:58;;;;;;;0.50;0.10;;;8.10;1.00;;;;;;5072101;28;20438;-66
2021/12/13 09:24:32;;;;;;;0.50;0.10;;;8.10;1.00;;;;;;5072029;28;20476;-65
2021/12/13 09:27:18;;;;;;;0.50;0.10;;;8.10;1.00;;;;;;5071943;28;20450;-65
2021/12/13 09:29:56;;;;;;;0.50;0.10;;;8.10;1.00;;;;;;5071043;28;20454;-65
2021/12/13 09:32:32;;;;;;;0.50;0.10;;;8.20;1.00;;;;;;5071403;28;20862;-65
2021/12/13 09:35:32;;;;;;;0.50;0.10;;;8.20;1.00;;;;;;5071156;28;20448;-65
2021/12/13 09:38:18;;;;;;;0.60;0.37;;;8.30;1.00;;;;;;5071262;28;21005;-66
2021/12/13 09:40:52;;;;;;;0.50;0.10;;;8.30;1.00;;;;;;5066020;28;20471;-65
2021/12/13 09:43:23;;;;;;;0.50;0.10;;;8.40;1.00;;;;;;5062950;28;20473;-66
2021/12/13 09:45:54;;;;;;;0.50;0.10;;;8.50;1.00;;;;;;5071417;28;20476;-66
2021/12/13 09:48:27;;;;;;;0.50;0.10;;;8.50;1.00;;;;;;5072751;28;20456;-66
2021/12/13 09:50:59;;;;;;;0.50;0.20;;;8.50;1.00;;;;;;5090520;28;20441;-65
2021/12/13 09:53:32;;;;;;;0.70;0.10;;;8.60;1.00;;;;;;5087292;28;20476;-65
2021/12/13 09:56:02;;;;;;;0.60;0.60;;;8.60;1.00;;;;;;5067613;28;20453;-66
2021/12/13 09:58:41;;;;;;;0.50;0.10;;;8.60;1.00;;;;;;5062233;28;20464;-66
2021/12/13 10:01:12;;;;;;;0.50;0.10;;;8.70;1.00;;;;;;5070888;28;20535;-65
2021/12/13 10:03:55;;;;;;;0.50;0.10;;;8.70;1.00;;;;;;5071181;28;20998;-66
2021/12/13 10:06:26;;;;;;;0.50;0.10;;;8.80;1.00;;;;;;5069467;28;20485;-65
2021/12/13 10:09:01;;;;;;;0.50;0.10;;;8.80;1.00;;;;;;5069046;28;20455;-65
2021/12/13 10:11:34;;;;;;;0.60;0.10;;;8.80;1.00;;;;;;5070968;28;20445;-65
2021/12/13 10:14:03;;;;;;;0.50;0.10;;;8.90;1.00;;;;;;5071658;28;20495;-65
2021/12/13 10:16:39;;;;;;;0.60;0.10;;;8.90;1.00;;;;;;5071746;28;20490;-65
2021/12/13 10:19:11;;;;;;;0.60;0.40;;;8.90;1.00;;;;;;5071031;28;20453;-65
2021/12/13 10:21:42;;;;;;;0.60;0.30;;;8.90;1.00;;;;;;5068460;28;20970;-65
2021/12/13 10:24:16;;;;;;;0.50;0.10;;;8.90;1.00;;;;;;5051127;28;20447;-66
2021/12/13 10:26:45;;;;;;;0.50;0.10;;;9.00;1.00;;;;;;5051368;28;20473;-66
2021/12/13 10:29:33;;;;;;;0.57;0.10;;;9.00;1.00;;;;;;5067194;28;20457;-66
2021/12/13 10:32:05;;;;;;;0.80;0.80;;;9.10;1.00;;;;;;5067084;28;20452;-65
2021/12/13 10:34:35;;;;;;;0.60;0.10;;;9.10;1.00;;;;;;5062598;28;20450;-66
2021/12/13 10:37:08;;;;;;;0.50;0.10;;;9.20;1.00;;;;;;5059106;28;20445;-65
2021/12/13 10:39:42;;;;;;;0.50;0.10;;;9.20;1.00;;;;;;5066462;28;20532;-65
2021/12/13 10:42:13;;;;;;;0.57;0.20;;;9.30;1.00;;;;;;5062294;28;20978;-66
2021/12/13 10:44:44;;;;;;;0.60;0.10;;;9.30;1.00;;;;;;5070801;28;20472;-65
2021/12/13 10:47:16;;;;;;;0.60;0.10;;;9.40;1.00;;;;;;5071618;28;20444;-66
2021/12/13 10:49:46;;;;;;;0.53;0.10;;;9.50;1.00;;;;;;5070534;28;20452;-67
2021/12/13 10:52:18;;;;;;;0.50;0.10;;;9.60;1.00;;;;;;5077260;28;20471;-66
2021/12/13 10:54:53;;;;;;;0.60;0.10;;;9.60;1.00;;;;;;5084926;28;20441;-66
2021/12/13 10:57:30;;;;;;;0.60;0.10;;;9.60;1.00;;;;;;5071244;28;20444;-66
2021/12/13 11:00:00;;;;;;;0.60;0.10;;;9.60;1.00;;;;;;5054004;28;20884;-66
2021/12/13 11:02:31;;;;;;;0.60;0.10;;;9.60;1.00;;;;;;5054551;28;20540;-65
2021/12/13 11:05:04;;;;;;;0.60;0.10;;;9.60;1.00;;;;;;5070990;28;20476;-66
2021/12/13 11:07:32;;;;;;;0.60;0.10;;;9.70;1.00;;;;;;5072917;28;20812;-66
2021/12/13 11:10:06;;;;;;;0.60;0.10;;;9.70;1.00;;;;;;5073691;28;20445;-66
2021/12/13 11:12:37;;;;;;;0.60;0.33;;;9.70;1.00;;;;;;5071412;28;20476;-65
2021/12/13 11:15:13;;;;;;;0.60;0.10;;;9.70;1.00;;;;;;5074117;28;20434;-67
2021/12/13 11:17:42;;;;;;;0.60;0.27;;;9.70;1.00;;;;;;5074087;28;20927;-67
2021/12/13 11:20:20;;;;;;;0.60;0.10;;;9.80;1.00;;;;;;5073316;28;20474;-65
2021/12/13 11:22:49;;;;;;;0.60;0.10;;;9.80;1.00;;;;;;5074055;28;20552;-67
2021/12/13 11:25:24;;;;;;;0.60;0.10;;;9.80;1.00;;;;;;5071165;28;20453;-64
2021/12/13 11:27:52;;;;;;;0.60;0.10;;;9.80;1.00;;;;;;5071610;28;20437;-66
2021/12/13 11:30:24;;;;;;;0.60;0.10;;;9.80;1.00;;;;;;5073048;28;20453;-67
2021/12/13 11:33:50;;;;;;;0.60;0.10;;;9.90;1.00;;;;;;5070265;28;20479;-66
2021/12/13 11:36:48;;;;;;;0.60;0.10;;;9.90;1.00;;;;;;5053316;28;20462;-67
2021/12/13 11:39:37;;;;;;;0.60;0.10;;;9.90;1.00;;;;;;5064713;28;20445;-67
2021/12/13 11:42:29;;;;;;;0.60;0.10;;;9.90;1.00;;;;;;5072473;28;20469;-68
2021/12/13 11:45:21;;;;;;;0.60;0.10;;;9.90;1.00;;;;;;5071484;28;20454;-66
2021/12/13 11:48:12;;;;;;;0.60;0.10;;;9.90;1.00;;;;;;5073626;28;20516;-66
2021/12/13 11:50:59;;;;;;;0.50;0.10;;;9.90;1.00;;;;;;5053652;28;20439;-66
2021/12/13 11:54:00;;;;;;;0.60;0.10;;;9.90;1.00;;;;;;5057852;28;20986;-66
2021/12/13 11:56:44;;;;;;;0.60;0.37;;;9.90;1.00;;;;;;5073991;28;20771;-67
2021/12/13 11:59:35;;;;;;;0.50;0.10;;;9.90;1.00;;;;;;5073284;28;20971;-66
2021/12/13 12:02:11;;;;;;;0.60;0.17;;;9.90;1.00;;;;;;5070954;28;20492;-67
2021/12/13 12:05:16;;;;;;;0.60;0.10;;;9.90;1.00;;;;;;5072325;28;20452;-66
2021/12/13 12:08:15;;;;;;;0.60;0.10;;;9.90;1.00;;;;;;5034384;28;20492;-67
2021/12/13 12:11:10;;;;;;;0.60;0.10;;;11.50;1.00;;;;;;5031917;28;20998;-66
2021/12/13 12:13:50;;;;;;;0.60;0.10;;;10.00;1.00;;;;;;5067189;28;20465;-67
2021/12/13 12:16:23;;;;;;;0.60;0.10;;;10.00;1.00;;;;;;5066223;28;20469;-67
2021/12/13 12:18:53;;;;;;;0.60;0.10;;;10.00;1.00;;;;;;5072377;28;20445;-67
2021/12/13 12:21:41;;;;;;;1.67;1.57;;;9.90;1.00;;;;;;5072226;28;20513;-66
2021/12/13 12:24:12;;;;;;;0.60;0.10;;;9.90;1.00;;;;;;5072455;28;20441;-68
2021/12/13 12:26:43;;;;;;;0.60;0.10;;;9.90;1.00;;;;;;5072077;28;20479;-67
2021/12/13 12:29:16;;;;;;;0.53;0.10;;;9.90;1.00;;;;;;5072113;28;20531;-66
2021/12/13 12:31:50;;;;;;;0.60;0.10;;;9.90;1.00;;;;;;5073581;28;20433;-66
2021/12/13 12:34:18;;;;;;;0.60;0.10;;;9.90;1.00;;;;;;5072846;28;20499;-67
2021/12/13 12:37:09;;;;;;;0.60;0.20;;;9.90;1.00;;;;;;5073521;28;20502;-67
2021/12/13 12:39:55;;;;;;;0.60;0.10;;;10.00;1.00;;;;;;5071927;28;20485;-66
2021/12/13 12:42:30;;;;;;;0.60;0.10;;;10.00;1.00;;;;;;5071442;28;20495;-66
2021/12/13 12:45:21;;;;;;;0.60;0.10;;;10.10;1.00;;;;;;5062296;28;20529;-69
2021/12/13 12:48:11;;;;;;;0.57;0.10;;;10.10;1.00;;;;;;5071966;28;20476;-67
2021/12/13 12:50:45;;;;;;;0.60;0.10;;;10.10;1.00;;;;;;5072175;28;20441;-68
2021/12/13 12:53:16;;;;;;;16.20;15.53;;;10.00;1.00;;;;;;5072159;28;21005;-67
2021/12/13 12:55:48;;;;;;;0.60;0.10;;;10.00;1.00;;;;;;5052767;28;20473;-67
2021/12/13 12:58:20;;;;;;;0.90;0.67;;;10.00;1.00;;;;;;5054115;28;20449;-67
2021/12/13 13:00:51;;;;;;;4.10;2.43;;;10.00;1.00;;;;;;5072021;28;20464;-69
2021/12/13 13:03:25;;;;;;;0.60;0.10;;;10.00;1.00;;;;;;5071714;28;20568;-67
2021/12/13 13:06:00;;;;;;;0.60;0.10;;;10.00;1.00;;;;;;5071846;28;20437;-66
2021/12/13 13:08:31;;;;;;;0.53;0.10;;;10.10;1.00;;;;;;5071583;28;20520;-67
2021/12/13 13:13:47;;;;;;;0.60;0.10;;;10.10;1.00;;;;;;5070236;28;20471;-68
2021/12/13 13:16:17;;;;;;;1.00;0.20;;;10.10;1.00;;;;;;5071939;28;20532;-65
2021/12/13 13:18:47;;;;;;;2.97;0.30;;;10.20;1.00;;;;;;5071635;28;20997;-65
2021/12/13 13:21:18;;;;;;;0.60;0.10;;;10.10;1.00;;;;;;5071988;28;20433;-66
2021/12/13 13:23:48;;;;;;;3.53;3.40;;;10.20;1.00;;;;;;5057838;28;20475;-66
2021/12/13 13:26:18;;;;;;;0.60;0.10;;;10.20;1.00;;;;;;5071566;28;20446;-68
2021/12/13 13:28:50;;;;;;;0.60;0.10;;;10.20;1.00;;;;;;5071820;28;20449;-66
2021/12/13 13:31:23;;;;;;;0.60;0.10;;;10.20;1.00;;;;;;5070674;28;20638;-66
2021/12/13 13:33:55;;;;;;;0.60;0.10;;;10.20;1.00;;;;;;5071645;28;20508;-66
2021/12/13 13:36:28;;;;;;;0.60;0.10;;;10.20;1.00;;;;;;5071302;28;20441;-66
2021/12/13 13:39:11;;;;;;;0.50;0.10;;;10.20;1.00;;;;;;5071496;28;20958;-67
2021/12/13 13:41:39;;;;;;;0.60;0.10;;;10.20;1.00;;;;;;5071161;28;20456;-67
2021/12/13 13:44:12;;;;;;;0.60;0.10;;;10.20;1.00;;;;;;5070674;28;21014;-67
2021/12/13 13:46:41;;;;;;;0.60;0.10;;;10.20;1.00;;;;;;5070870;28;20830;-67
2021/12/13 13:49:16;;;;;;;0.60;0.10;;;10.20;1.00;;;;;;5071047;28;20472;-66
2021/12/13 13:51:44;;;;;;;0.60;0.10;;;;;;;;;;5071243;28;20481;-67
2021/12/13 13:54:13;;;;;;;0.60;0.10;;;10.20;1.00;;;;;;5071614;28;20449;-67